Logan International, MA

11:25 AM EST on March 05, 2015 (GMT -0500)
East Milton | Change Station
CLOSE
Current Station
Airport
Location: East Milton,
Elevation: 630 ft
Nearby Weather Stations
Active Advisory: Special Statement Active Notice: Public Information Statement

Elev 630 ft 42.21 °N, 71.11 °W | Updated 31 minutes ago

Overcast
Overcast
27 °F
Feels Like 17 °F
N
12
Wind Variable Wind from NW
Gusts 26 mph

Today
High -- | Low -- °F
--% Chance of Precip.
Yesterday
High -- | Low -- °F
Precip. -- in
6:13 AM 5:38 PM
Full, 100% visible
Pressure 30.07 in
Visibility -9999.0 miles
Clouds
Windchill 17 °F
Dew Point 7 °F
Humidity 43%
Rainfall 0.01 in
Snow Depth Not available.
UV Not available.
Pollen .40 out of 12
Air Quality Not available.
Flu Activity Not available.
METAR KMQE 051554Z AUTO 31010G23KT M03/M14 A3002 RMK AO1 SLP182 T10281139

More Conditions Fewer Conditions

Pressure 30.07 in
Visibility -9999.0 miles
Clouds
Windchill 17 °F
Dew Point 7 °F
Humidity 43%
Rainfall 0.01 in
Snow Depth Not available.
UV Not available.
Pollen .40 out of 12
Air Quality Not available.
Flu Activity Not available.
METAR KMQE 051554Z AUTO 31010G23KT M03/M14 A3002 RMK AO1 SLP182 T10281139

More Conditions Fewer Conditions

10-Day Weather Forecast

Almanac

Astronomy

Mar. 05, 2015 Rise Set
Actual Time
Civil Twilight
Nautical Twilight
Astronomical Twilight
Moon
Length of Visible Light
Length of Day
Tomorrow will be .
, % of the Moon is Illuminated

Today's Extremes

State Highs State Lows

Community

WunderPhotos

Upload Photos

1,802,840 photos uploaded!

WunderBlogs® & News

Nearby

Air Quality

  Air Quality AQ Index Pollutant
Not available.

Snow Depth

Station Depth Elevation

Earthquake Activity

City Distance Mag. Time & Date
Minimum magnitude displayed is 2.5.

Coastal Water Temperatures

Place Temperature

Nearby Weather Stations

Special Statement
Statement as of 8:34 AM EST on March 05, 2015

... Black ice and slippery roads as temperatures fall...

Temperatures continue to fall with many locations falling below
freezing. This has resulted in any snowmelt from the past 24 to
36 hours refreezing... below the snow that is falling this morning.
Untreated roads and sidewalks will have black ice forming on them.
Motorists should drive with extra caution if travelling this
morning.


Rlg